createdAt,value
2019-06-27T00:01:01.828Z,5.07
2019-06-27T00:03:34.488Z,6.57
2019-06-27T00:06:06.724Z,7.77
2019-06-27T00:08:43.878Z,5.10
2019-06-27T00:11:16.144Z,5.87
2019-06-27T00:13:48.385Z,7.17
2019-06-27T00:16:20.772Z,7.17
2019-06-27T00:18:53.477Z,5.60
2019-06-27T00:21:25.976Z,7.27
2019-06-27T00:23:58.491Z,7.07
2019-06-27T00:26:30.745Z,6.07
2019-06-27T00:29:04.064Z,6.20
2019-06-27T00:31:36.299Z,7.00
2019-06-27T00:34:08.648Z,6.70
2019-06-27T00:36:41.775Z,7.33
2019-06-27T00:39:14.008Z,6.80
2019-06-27T00:41:46.169Z,6.40
2019-06-27T00:44:27.204Z,8.73
2019-06-27T00:47:01.430Z,5.90
2019-06-27T00:49:33.777Z,5.63
2019-06-27T00:52:07.235Z,7.68
2019-06-27T00:54:39.880Z,8.50
2019-06-27T00:57:14.399Z,6.53
2019-06-27T00:59:47.240Z,8.17
2019-06-27T01:02:26.428Z,6.45
2019-06-27T01:05:04.831Z,8.03
2019-06-27T01:07:37.134Z,6.87
2019-06-27T01:10:12.164Z,10.20
2019-06-27T01:12:44.515Z,8.00
2019-06-27T01:15:19.232Z,7.17
2019-06-27T01:17:51.611Z,6.53
2019-06-27T01:20:23.959Z,7.43
2019-06-27T01:22:56.235Z,8.70
2019-06-27T01:25:29.766Z,7.10
2019-06-27T01:28:02.058Z,6.80
2019-06-27T01:30:34.335Z,7.33
2019-06-27T01:33:06.710Z,6.97
2019-06-27T01:35:38.976Z,7.20
2019-06-27T01:38:11.348Z,7.43
2019-06-27T01:40:43.546Z,6.62
2019-06-27T01:43:23.391Z,5.87
2019-06-27T01:45:58.270Z,7.47
2019-06-27T01:48:32.209Z,7.68
2019-06-27T01:51:04.382Z,6.57
2019-06-27T01:53:36.673Z,4.27
2019-06-27T01:56:08.890Z,5.27
2019-06-27T01:58:41.852Z,5.68
2019-06-27T02:04:39.506Z,9.63
2019-06-27T02:07:16.836Z,9.17
2019-06-27T02:09:54.195Z,7.87
2019-06-27T02:12:31.448Z,5.97
2019-06-27T02:15:08.107Z,9.63
2019-06-27T02:17:45.445Z,8.23
2019-06-27T02:20:17.722Z,8.20
2019-06-27T02:22:50.087Z,8.13
2019-06-27T02:25:23.649Z,8.13
2019-06-27T02:28:03.764Z,7.80
2019-06-27T02:30:41.636Z,7.93
2019-06-27T02:33:14.020Z,6.40
2019-06-27T02:35:46.311Z,9.10
2019-06-27T02:38:18.707Z,8.67
2019-06-27T02:40:51.005Z,6.73
2019-06-27T02:43:23.369Z,7.83
2019-06-27T02:45:55.589Z,6.23
2019-06-27T02:48:27.971Z,7.77
2019-06-27T02:51:00.266Z,7.43
2019-06-27T02:53:32.644Z,7.17
2019-06-27T02:56:04.866Z,6.33
2019-06-27T02:58:37.230Z,9.23
2019-06-27T03:01:09.625Z,11.80
2019-06-27T03:03:42.128Z,8.90
2019-06-27T03:06:14.519Z,11.60
2019-06-27T03:08:46.795Z,10.50
2019-06-27T03:11:18.976Z,7.90
2019-06-27T03:13:51.243Z,13.77
2019-06-27T03:16:23.454Z,13.20
2019-06-27T03:18:55.701Z,11.63
2019-06-27T03:21:27.928Z,13.67
2019-06-27T03:24:00.189Z,13.53
2019-06-27T03:26:32.440Z,14.77
2019-06-27T03:29:04.702Z,16.03
2019-06-27T03:31:36.954Z,17.27
2019-06-27T03:34:09.306Z,15.57
2019-06-27T03:36:41.514Z,15.23
2019-06-27T03:39:13.728Z,15.60
2019-06-27T03:41:45.964Z,19.03
2019-06-27T03:44:18.220Z,16.97
2019-06-27T03:46:50.405Z,16.20
2019-06-27T03:49:22.620Z,15.27
2019-06-27T03:51:54.901Z,13.60
2019-06-27T03:54:27.090Z,17.33
2019-06-27T03:56:59.361Z,14.60
2019-06-27T03:59:31.605Z,19.17
2019-06-27T04:02:03.828Z,16.87
2019-06-27T04:04:41.033Z,15.47
2019-06-27T04:07:18.087Z,17.53
2019-06-27T04:09:50.285Z,15.37
2019-06-27T04:12:22.915Z,18.00
2019-06-27T04:14:55.260Z,13.10
2019-06-27T04:17:27.593Z,12.63
2019-06-27T04:19:59.856Z,15.80
2019-06-27T04:22:32.191Z,16.57
2019-06-27T04:25:04.598Z,15.57
2019-06-27T04:27:36.909Z,15.33
2019-06-27T04:30:08.789Z,15.03
2019-06-27T04:32:41.057Z,16.30
2019-06-27T04:35:14.751Z,15.97
2019-06-27T04:37:48.177Z,16.30
2019-06-27T04:40:23.244Z,14.87
2019-06-27T04:42:55.470Z,17.13
2019-06-27T04:45:27.643Z,18.77
2019-06-27T04:47:59.925Z,16.20
2019-06-27T04:50:33.113Z,17.70
2019-06-27T04:53:05.393Z,19.77
2019-06-27T04:55:37.627Z,19.47
2019-06-27T04:58:09.960Z,19.77
2019-06-27T05:00:42.235Z,19.20
2019-06-27T05:03:15.521Z,20.63
2019-06-27T05:05:47.806Z,19.37
2019-06-27T05:08:20.061Z,19.53
2019-06-27T05:10:52.271Z,18.43
2019-06-27T05:13:24.784Z,18.73
2019-06-27T05:15:57.317Z,17.05
2019-06-27T05:18:29.643Z,19.70
2019-06-27T05:21:01.835Z,18.47
2019-06-27T05:23:34.195Z,18.17
2019-06-27T05:26:06.467Z,16.23
2019-06-27T05:28:38.767Z,16.03
2019-06-27T05:31:11.281Z,15.53
2019-06-27T05:33:43.767Z,14.70
2019-06-27T05:36:16.064Z,13.27
2019-06-27T05:38:48.367Z,13.67
2019-06-27T05:41:20.535Z,16.07
2019-06-27T05:43:52.895Z,21.23
2019-06-27T05:46:25.125Z,18.77
2019-06-27T05:48:57.420Z,22.10
2019-06-27T05:51:29.671Z,13.63
2019-06-27T05:54:01.952Z,12.40
2019-06-27T05:56:34.387Z,14.40
2019-06-27T05:59:06.654Z,14.03
2019-06-27T06:01:38.864Z,14.43
2019-06-27T06:04:11.151Z,13.02
2019-06-27T06:06:43.365Z,10.87
2019-06-27T06:09:15.652Z,11.80
2019-06-27T06:11:47.814Z,10.23
2019-06-27T06:14:20.041Z,11.48
2019-06-27T06:16:52.264Z,10.83
2019-06-27T06:19:24.526Z,12.87
2019-06-27T06:21:56.755Z,8.30
2019-06-27T06:24:29.080Z,12.20
2019-06-27T06:27:01.295Z,11.60
2019-06-27T06:29:33.683Z,11.55
2019-06-27T06:32:06.683Z,14.43
2019-06-27T06:34:39.136Z,13.50
2019-06-27T06:37:11.405Z,14.50
2019-06-27T06:39:43.670Z,13.20
2019-06-27T06:42:15.830Z,13.87
2019-06-27T06:44:48.818Z,14.73
2019-06-27T06:47:21.022Z,17.77
2019-06-27T06:49:53.286Z,15.57
2019-06-27T06:52:25.469Z,12.70
2019-06-27T06:54:58.546Z,13.00
2019-06-27T06:57:30.696Z,15.00
2019-06-27T07:00:05.467Z,11.40
2019-06-27T07:02:37.808Z,12.37
2019-06-27T07:05:10.613Z,11.63
2019-06-27T07:07:43.258Z,9.13
2019-06-27T07:10:16.024Z,12.97
2019-06-27T07:12:48.249Z,13.37
2019-06-27T07:15:23.351Z,8.87
2019-06-27T07:17:56.544Z,12.30
2019-06-27T07:20:28.897Z,10.43
2019-06-27T07:23:01.143Z,10.13
2019-06-27T07:25:33.588Z,8.57
2019-06-27T07:28:05.820Z,10.23
2019-06-27T07:30:38.036Z,10.60
2019-06-27T07:33:10.466Z,10.20
2019-06-27T07:35:42.819Z,9.63
2019-06-27T07:38:14.995Z,11.03
2019-06-27T07:40:47.257Z,10.40
2019-06-27T07:43:19.475Z,12.10
2019-06-27T07:45:51.716Z,14.43
2019-06-27T07:48:23.946Z,8.87
2019-06-27T07:50:56.235Z,10.80
2019-06-27T07:53:28.435Z,7.90
2019-06-27T07:56:02.219Z,10.13
2019-06-27T07:58:34.377Z,8.00
2019-06-27T08:01:06.576Z,7.80
2019-06-27T08:03:38.783Z,9.03
2019-06-27T08:06:11.029Z,8.87
2019-06-27T08:08:43.284Z,8.10
2019-06-27T08:11:15.533Z,7.40
2019-06-27T08:13:47.697Z,7.40
2019-06-27T08:16:19.920Z,7.70
2019-06-27T08:18:52.163Z,8.03
2019-06-27T08:21:24.496Z,8.13
2019-06-27T08:23:56.656Z,5.57
2019-06-27T08:26:29.372Z,6.27
2019-06-27T08:29:01.628Z,8.67
2019-06-27T08:31:47.455Z,7.30
2019-06-27T08:34:23.181Z,6.20
2019-06-27T08:36:55.404Z,4.90
2019-06-27T08:39:27.583Z,5.90
2019-06-27T08:41:59.811Z,6.27
2019-06-27T08:44:31.985Z,5.67
2019-06-27T08:47:04.252Z,8.30
2019-06-27T08:49:36.497Z,6.47
2019-06-27T08:52:08.790Z,7.67
2019-06-27T08:54:40.988Z,5.03
2019-06-27T08:57:20.420Z,6.17
2019-06-27T08:59:52.603Z,4.57
2019-06-27T09:02:24.872Z,5.43
2019-06-27T09:04:57.103Z,5.40
2019-06-27T09:07:29.319Z,5.13
2019-06-27T09:10:01.617Z,4.40
2019-06-27T09:12:35.892Z,4.77
2019-06-27T09:15:07.755Z,4.70
2019-06-27T09:17:40.213Z,6.10
2019-06-27T09:20:12.408Z,7.43
2019-06-27T09:22:44.658Z,6.67
2019-06-27T09:25:16.937Z,5.60
2019-06-27T09:27:49.234Z,3.97
2019-06-27T09:30:22.457Z,7.80
2019-06-27T09:32:54.778Z,7.67
2019-06-27T09:35:27.029Z,5.90
2019-06-27T09:37:59.422Z,4.30
2019-06-27T09:40:37.984Z,4.33
2019-06-27T09:43:10.289Z,7.13
2019-06-27T09:45:42.532Z,6.07
2019-06-27T09:48:14.787Z,5.40
2019-06-27T09:50:46.996Z,4.00
2019-06-27T09:53:19.382Z,3.63
2019-06-27T09:55:51.603Z,6.23
2019-06-27T10:01:40.854Z,4.97
2019-06-27T10:04:15.551Z,3.67
2019-06-27T10:06:47.773Z,4.00
2019-06-27T10:09:20.167Z,4.53
2019-06-27T10:11:53.357Z,6.63
2019-06-27T10:14:25.856Z,5.53
2019-06-27T10:16:58.791Z,4.37
2019-06-27T10:19:32.034Z,4.80
2019-06-27T10:22:04.326Z,5.47
2019-06-27T10:24:56.352Z,4.40
2019-06-27T10:27:43.671Z,5.53
2019-06-27T10:30:25.924Z,6.50
2019-06-27T10:33:00.068Z,6.90
2019-06-27T10:35:32.763Z,5.97
2019-06-27T10:38:04.980Z,7.53
2019-06-27T10:40:37.328Z,5.93
2019-06-27T10:43:09.543Z,4.95
2019-06-27T10:45:41.853Z,5.82
2019-06-27T10:48:14.137Z,5.37
2019-06-27T10:50:46.700Z,6.10
2019-06-27T10:53:18.983Z,4.90
2019-06-27T10:55:51.214Z,4.43
2019-06-27T10:58:23.425Z,4.77
2019-06-27T11:00:55.708Z,6.20
2019-06-27T11:03:27.891Z,5.03
2019-06-27T11:06:00.189Z,4.87
2019-06-27T11:08:32.379Z,6.87
2019-06-27T11:11:04.679Z,6.67
2019-06-27T11:13:36.896Z,8.43
2019-06-27T11:16:09.189Z,4.93
2019-06-27T11:18:46.445Z,4.67
2019-06-27T11:21:22.456Z,5.43
2019-06-27T11:23:55.163Z,6.70
2019-06-27T11:26:27.892Z,7.70
2019-06-27T11:29:00.701Z,6.23
2019-06-27T11:31:33.037Z,6.23
2019-06-27T11:34:05.313Z,6.77
2019-06-27T11:36:37.627Z,5.33
2019-06-27T11:39:10.044Z,7.40
2019-06-27T11:41:42.323Z,4.05
2019-06-27T11:44:14.511Z,7.40
2019-06-27T11:46:47.744Z,6.23
2019-06-27T11:49:19.996Z,5.07
2019-06-27T11:51:52.665Z,5.20
2019-06-27T11:54:28.264Z,5.67
2019-06-27T11:57:00.605Z,5.53
2019-06-27T11:59:34.453Z,6.07
2019-06-27T12:02:08.615Z,5.80
2019-06-27T12:04:41.108Z,8.80
2019-06-27T12:07:13.409Z,5.90
2019-06-27T12:09:46.012Z,5.80
2019-06-27T12:12:20.269Z,4.60
2019-06-27T12:14:56.381Z,5.00
2019-06-27T12:17:29.389Z,5.17
2019-06-27T12:20:02.635Z,7.67
2019-06-27T12:22:35.108Z,6.40
2019-06-27T12:25:28.505Z,6.47
2019-06-27T12:28:28.033Z,7.73
2019-06-27T12:31:10.334Z,4.23
2019-06-27T12:34:05.568Z,7.27
2019-06-27T12:36:39.449Z,8.43
2019-06-27T12:39:12.382Z,6.97
2019-06-27T12:41:44.747Z,5.77
2019-06-27T12:44:17.224Z,6.63
2019-06-27T12:46:50.422Z,5.67
2019-06-27T12:49:36.947Z,8.83
2019-06-27T12:52:17.472Z,5.35
2019-06-27T12:54:52.371Z,5.33
2019-06-27T12:57:25.044Z,5.57
2019-06-27T12:59:57.652Z,4.60
2019-06-27T13:02:29.962Z,5.87
2019-06-27T13:05:02.439Z,7.27
2019-06-27T13:07:34.670Z,8.40
2019-06-27T13:10:07.160Z,4.82
2019-06-27T13:12:40.505Z,6.67
2019-06-27T13:15:15.223Z,7.60
2019-06-27T13:17:48.581Z,5.27
2019-06-27T13:20:21.205Z,6.60
2019-06-27T13:22:53.462Z,7.97
2019-06-27T13:25:25.851Z,4.97
2019-06-27T13:27:58.128Z,7.23
2019-06-27T13:30:30.483Z,5.23
2019-06-27T13:33:03.145Z,6.63
2019-06-27T13:35:35.968Z,5.47
2019-06-27T13:38:09.465Z,6.82
2019-06-27T13:40:41.860Z,6.60
2019-06-27T13:43:14.031Z,5.30
2019-06-27T13:45:46.508Z,6.80
2019-06-27T13:48:18.770Z,5.47
2019-06-27T13:50:51.090Z,3.93
2019-06-27T13:53:23.349Z,4.40
2019-06-27T13:55:55.632Z,6.67
2019-06-27T13:58:27.838Z,6.57
2019-06-27T14:01:00.311Z,3.03
2019-06-27T14:03:48.315Z,4.90
2019-06-27T14:06:21.825Z,4.60
2019-06-27T14:08:54.189Z,4.03
2019-06-27T14:11:26.467Z,6.63
2019-06-27T14:13:58.745Z,3.90
2019-06-27T14:16:31.825Z,4.87
2019-06-27T14:19:04.532Z,6.05
2019-06-27T14:21:37.714Z,4.20
2019-06-27T14:24:09.980Z,6.17
2019-06-27T14:26:42.315Z,5.33
2019-06-27T14:29:14.596Z,5.53
2019-06-27T14:31:46.890Z,6.07
2019-06-27T14:34:19.179Z,4.33
2019-06-27T14:36:54.295Z,6.43
2019-06-27T14:39:27.298Z,5.13
2019-06-27T14:42:00.595Z,3.43
2019-06-27T14:44:32.981Z,6.90
2019-06-27T14:47:05.337Z,4.18
2019-06-27T14:49:37.731Z,4.53
2019-06-27T14:52:10.180Z,4.37
2019-06-27T14:54:46.278Z,4.47
2019-06-27T14:57:19.599Z,6.40
2019-06-27T14:59:52.086Z,5.95
2019-06-27T15:02:24.406Z,4.97
2019-06-27T15:04:56.748Z,4.78
2019-06-27T15:07:32.041Z,6.27
2019-06-27T15:10:12.952Z,4.33
2019-06-27T15:12:56.628Z,6.23
2019-06-27T15:15:30.000Z,9.40
2019-06-27T15:18:02.508Z,5.03
2019-06-27T15:20:35.695Z,6.73
2019-06-27T15:23:08.104Z,3.90
2019-06-27T15:25:42.235Z,4.10
2019-06-27T15:28:14.611Z,4.12
2019-06-27T15:30:47.870Z,5.75
2019-06-27T15:33:20.301Z,5.97
2019-06-27T15:35:52.986Z,3.90
2019-06-27T15:38:25.756Z,6.40
2019-06-27T15:40:58.545Z,5.17
2019-06-27T15:43:31.105Z,4.73
2019-06-27T15:46:03.612Z,5.07
2019-06-27T15:48:36.051Z,4.37
2019-06-27T15:51:09.220Z,3.27
2019-06-27T15:53:41.698Z,3.30
2019-06-27T15:56:14.058Z,4.73
2019-06-27T15:58:46.434Z,7.20
2019-06-27T16:01:18.722Z,5.43
2019-06-27T16:03:51.068Z,3.40
2019-06-27T16:06:23.536Z,5.13
2019-06-27T16:08:56.208Z,7.03
2019-06-27T16:11:29.337Z,4.57
2019-06-27T16:14:01.645Z,5.28
2019-06-27T16:16:33.956Z,3.67
2019-06-27T16:19:06.257Z,3.87
2019-06-27T16:21:38.495Z,5.33
2019-06-27T16:24:10.748Z,5.13
2019-06-27T16:26:42.995Z,5.63
2019-06-27T16:29:15.275Z,3.87
2019-06-27T16:31:50.216Z,4.60
2019-06-27T16:34:22.745Z,3.43
2019-06-27T16:36:55.216Z,4.13
2019-06-27T16:39:27.532Z,3.20
2019-06-27T16:41:59.823Z,4.27
2019-06-27T16:44:35.599Z,4.13
2019-06-27T16:47:08.332Z,2.90
2019-06-27T16:49:40.721Z,3.67
2019-06-27T16:52:13.986Z,4.37
2019-06-27T16:54:46.555Z,4.03
2019-06-27T16:57:18.807Z,3.87
2019-06-27T16:59:51.841Z,4.70
2019-06-27T17:02:24.091Z,3.67
2019-06-27T17:04:56.524Z,3.83
2019-06-27T17:07:28.794Z,3.93
2019-06-27T17:10:02.077Z,4.57
2019-06-27T17:12:34.292Z,3.67
2019-06-27T17:15:08.988Z,2.97
2019-06-27T17:17:41.833Z,2.22
2019-06-27T17:20:15.779Z,3.77
2019-06-27T17:22:48.146Z,3.30
2019-06-27T17:25:20.468Z,3.62
2019-06-27T17:27:52.775Z,4.87
2019-06-27T17:30:25.167Z,4.05
2019-06-27T17:32:58.167Z,3.75
2019-06-27T17:35:30.529Z,2.83
2019-06-27T17:38:02.842Z,5.77
2019-06-27T17:40:35.165Z,3.40
2019-06-27T17:43:07.522Z,3.47
2019-06-27T17:45:39.821Z,4.40
2019-06-27T17:48:12.063Z,3.13
2019-06-27T17:50:44.295Z,5.13
2019-06-27T17:53:16.618Z,3.67
2019-06-27T17:55:48.955Z,4.60
2019-06-27T17:58:21.348Z,5.27
2019-06-27T18:00:53.940Z,4.27
2019-06-27T18:03:26.384Z,3.90
2019-06-27T18:05:59.821Z,4.33
2019-06-27T18:08:32.230Z,5.53
2019-06-27T18:11:05.080Z,4.00
2019-06-27T18:13:37.352Z,4.47
2019-06-27T18:16:09.719Z,4.93
2019-06-27T18:18:42.097Z,3.73
2019-06-27T18:21:14.352Z,5.83
2019-06-27T18:23:46.681Z,4.63
2019-06-27T18:26:19.130Z,5.07
2019-06-27T18:28:53.906Z,5.57
2019-06-27T18:31:26.270Z,11.73
2019-06-27T18:33:58.670Z,8.20
2019-06-27T18:36:30.941Z,9.97
2019-06-27T18:39:03.514Z,4.87
2019-06-27T18:41:35.805Z,6.00
2019-06-27T18:44:08.173Z,3.63
2019-06-27T18:46:40.574Z,4.20
2019-06-27T18:49:13.486Z,4.13
2019-06-27T18:51:45.900Z,6.33
2019-06-27T18:54:18.208Z,5.13
2019-06-27T18:56:50.556Z,7.60
2019-06-27T18:59:22.924Z,4.70
2019-06-27T19:01:55.345Z,4.70
2019-06-27T19:04:28.963Z,3.90
2019-06-27T19:07:01.277Z,4.77
2019-06-27T19:09:33.594Z,3.17
2019-06-27T19:12:06.618Z,5.13
2019-06-27T19:14:38.956Z,3.70
2019-06-27T19:17:11.291Z,3.77
2019-06-27T19:19:48.715Z,6.53
2019-06-27T19:22:44.443Z,5.45
2019-06-27T19:25:33.332Z,5.35
2019-06-27T19:28:05.834Z,5.43
2019-06-27T19:30:38.195Z,4.40
2019-06-27T19:33:10.705Z,5.40
2019-06-27T19:35:42.990Z,6.03
2019-06-27T19:38:15.294Z,3.57
2019-06-27T19:40:47.586Z,5.27
2019-06-27T19:43:27.537Z,5.50
2019-06-27T19:46:01.060Z,4.27
2019-06-27T19:48:33.489Z,4.37
2019-06-27T19:51:06.394Z,4.07
2019-06-27T19:53:39.665Z,3.03
2019-06-27T19:56:11.955Z,4.20
2019-06-27T19:58:44.287Z,4.43
2019-06-27T20:01:18.189Z,5.67
2019-06-27T20:03:51.953Z,5.03
2019-06-27T20:06:25.758Z,3.40
2019-06-27T20:08:59.584Z,3.80
2019-06-27T20:11:32.844Z,4.72
2019-06-27T20:14:05.286Z,4.47
2019-06-27T20:16:38.249Z,4.83
2019-06-27T20:19:12.809Z,5.33
2019-06-27T20:21:45.248Z,4.00
2019-06-27T20:26:12.433Z,4.60
2019-06-27T20:28:44.800Z,5.80
2019-06-27T20:31:18.721Z,4.47
2019-06-27T20:33:53.213Z,4.87
2019-06-27T20:36:25.690Z,4.97
2019-06-27T20:38:58.061Z,6.87
2019-06-27T20:41:31.073Z,6.33
2019-06-27T20:44:03.389Z,5.43
2019-06-27T20:46:35.716Z,5.07
2019-06-27T20:49:09.720Z,3.53
2019-06-27T20:51:41.971Z,4.63
2019-06-27T20:54:14.244Z,7.17
2019-06-27T20:56:46.596Z,3.83
2019-06-27T20:59:18.837Z,4.33
2019-06-27T21:01:51.152Z,4.63
2019-06-27T21:04:23.385Z,5.47
2019-06-27T21:06:55.727Z,4.23
2019-06-27T21:09:28.009Z,3.93
2019-06-27T21:12:00.272Z,4.93
2019-06-27T21:14:33.223Z,3.87
2019-06-27T21:17:05.606Z,3.90
2019-06-27T21:19:38.012Z,3.80
2019-06-27T21:22:10.303Z,3.03
2019-06-27T21:24:42.547Z,3.07
2019-06-27T21:27:14.792Z,3.40
2019-06-27T21:29:47.126Z,4.93
2019-06-27T21:32:30.903Z,2.53
2019-06-27T21:35:04.471Z,2.95
2019-06-27T21:37:36.697Z,3.00
2019-06-27T21:40:08.919Z,2.50
2019-06-27T21:42:41.154Z,3.43
2019-06-27T21:45:14.928Z,5.13
2019-06-27T21:47:47.227Z,6.90
2019-06-27T21:50:19.521Z,2.53
2019-06-27T21:52:51.746Z,3.57
2019-06-27T21:55:23.977Z,4.87
2019-06-27T21:57:59.717Z,4.20
2019-06-27T22:00:36.948Z,3.97
2019-06-27T22:03:09.189Z,3.73
2019-06-27T22:05:41.544Z,3.77
2019-06-27T22:08:13.535Z,4.90
2019-06-27T22:10:45.817Z,4.73
2019-06-27T22:13:18.049Z,3.67
2019-06-27T22:15:50.339Z,3.03
2019-06-27T22:18:22.587Z,5.00
2019-06-27T22:20:54.892Z,2.97
2019-06-27T22:23:27.212Z,4.07
2019-06-27T22:25:59.484Z,6.60
2019-06-27T22:28:31.800Z,4.07
2019-06-27T22:31:04.100Z,4.53
2019-06-27T22:33:36.277Z,3.57
2019-06-27T22:36:08.476Z,4.67
2019-06-27T22:38:46.208Z,5.60
2019-06-27T22:41:23.864Z,4.40
2019-06-27T22:44:01.677Z,5.40
2019-06-27T22:46:39.523Z,5.60
2019-06-27T22:49:11.487Z,7.83
2019-06-27T22:52:03.065Z,6.00
2019-06-27T22:54:38.244Z,5.67
2019-06-27T22:57:10.447Z,5.37
2019-06-27T22:59:42.633Z,7.37
2019-06-27T23:02:14.846Z,5.80
2019-06-27T23:04:47.147Z,6.00
2019-06-27T23:07:19.365Z,7.27
2019-06-27T23:09:56.789Z,6.20
2019-06-27T23:12:29.871Z,5.15
2019-06-27T23:15:03.878Z,5.97
2019-06-27T23:17:36.107Z,6.80
2019-06-27T23:20:09.315Z,6.70
2019-06-27T23:22:41.546Z,5.60
2019-06-27T23:25:13.813Z,6.97
2019-06-27T23:27:46.399Z,7.87
2019-06-27T23:30:17.906Z,7.63
2019-06-27T23:32:50.144Z,10.00
2019-06-27T23:35:22.379Z,8.40
2019-06-27T23:37:54.611Z,7.90
2019-06-27T23:40:26.944Z,8.20
2019-06-27T23:42:59.196Z,7.27
2019-06-27T23:45:32.648Z,8.25
2019-06-27T23:48:04.835Z,7.40
2019-06-27T23:50:37.248Z,7.57
2019-06-27T23:53:09.433Z,5.37
2019-06-27T23:55:41.654Z,9.23
2019-06-27T23:58:14.525Z,8.63
